Impacts TAF Board
For situational awareness. Not to be used for flight planning purposes.
IDs:

KMIA - Miami Intl, FL, US

Issued at 1742 UTC 19 Aug 2019
Updated at 1936 UTC 19 Aug 2019
Potential Impact None Slight Moderate High
Time<<20/08Z 20/09Z 20/10Z 20/11Z 20/12Z 20/13Z 20/14Z 20/15Z 20/16Z 20/17Z 20/18Z 20/19Z 20/20Z>>
Type PRVL PRVL PRVL PRVL PRVL PRVL PRVL PRVL PRVL PRVL PRVL PRVL PRVL
VIS >6 >6 >6 >6 >6 >6 >6 >6 >6 >6 >6 >6 >6
CIG -- -- -- -- -- -- 50 50 50 50 50 50 50
Cover SCT SCT SCT SCT SCT SCT BKN BKN BKN BKN BKN BKN BKN
FltCat VFR VFR VFR VFR VFR VFR VFR VFR VFR VFR VFR VFR VFR
WX VCSH VCSH VCSH VCSH VCSH VCSH VCSH VCSH VCSH VCSH VCSH VCSH VCSH
WDir 110 110 110 110 110 110 110 110 110 110 110 110 110
WSpd 4 4 4 4 4 4 12 12 12 12 12 12 12
WGst -- -- -- -- -- -- -- -- -- -- -- -- --
Raw TAF
KMIA 191742Z 1918/2024 08011KT P6SM VCTS SCT035CB SCT060
  TEMPO 1918/1920 04015G25KT 4SM TSRA SCT025 BKN035CB
  FM192300 08008KT P6SM FEW030 SCT050
  FM200500 11004KT P6SM VCSH SCT030
  FM201400 11012KT P6SM VCSH SCT030 BKN050


METAR Board
Radar Display
Forecast Discussion
For situational awareness. Not to be used for flight planning purposes.